Ichikawa, Japan
Current Conditions -  °F | °C
As of 9:30 AM on Tuesday 21 Oct 2014 (Local Time) from RJTT Reporting Station
Light Rain Light Rain  
Wind Chill: 64°   Ceiling: 4000
Heat Index: 64°   Visibility: 2.1mi
Dew Point: 63°   Wind: 2mph
Humidity: 94%   Direction: NA
Pressure: 30.09"   Gusts: NA
Location:  35.72°N, 139.93°E
Report Text: RJTT 210030Z VRB02KT 3500 -RA BR FEW010 SCT025 BKN040 18/17 Q1019 NOSIG
Loading
Personal Weather Stations






























Interactive Weather Map
Tropical Storm Tracking
New forecast layout! Learn more

10-Day Weather Forecast

Advertisements
Track Severe Weather on mobile